sensor_id;sensor_type;location;lat;lon;timestamp;temperature;humidity
65396;HTU21D;52004;45.136;39.010;2023-02-10T00:00:42;-9.09;66.72
65396;HTU21D;52004;45.136;39.010;2023-02-10T00:03:08;-9.12;66.69
65396;HTU21D;52004;45.136;39.010;2023-02-10T00:05:34;-9.17;66.68
65396;HTU21D;52004;45.136;39.010;2023-02-10T00:08:00;-9.25;66.77
65396;HTU21D;52004;45.136;39.010;2023-02-10T00:10:26;-9.32;66.85
65396;HTU21D;52004;45.136;39.010;2023-02-10T00:12:52;-9.36;67.00
65396;HTU21D;52004;45.136;39.010;2023-02-10T00:15:18;-9.38;66.94
65396;HTU21D;52004;45.136;39.010;2023-02-10T00:17:43;-9.38;66.94
65396;HTU21D;52004;45.136;39.010;2023-02-10T00:20:09;-9.38;66.94
65396;HTU21D;52004;45.136;39.010;2023-02-10T00:22:35;-9.37;66.97
65396;HTU21D;52004;45.136;39.010;2023-02-10T00:25:01;-9.32;66.98
65396;HTU21D;52004;45.136;39.010;2023-02-10T00:27:28;-9.28;66.95
65396;HTU21D;52004;45.136;39.010;2023-02-10T00:29:54;-9.27;66.86
65396;HTU21D;52004;45.136;39.010;2023-02-10T00:32:20;-9.26;66.73
65396;HTU21D;52004;45.136;39.010;2023-02-10T00:34:46;-9.25;66.74
65396;HTU21D;52004;45.136;39.010;2023-02-10T00:37:12;-9.24;66.73
65396;HTU21D;52004;45.136;39.010;2023-02-10T00:39:38;-9.24;66.66
65396;HTU21D;52004;45.136;39.010;2023-02-10T00:42:04;-9.26;66.59
65396;HTU21D;52004;45.136;39.010;2023-02-10T00:44:30;-9.28;66.66
65396;HTU21D;52004;45.136;39.010;2023-02-10T00:46:56;-9.28;66.72
65396;HTU21D;52004;45.136;39.010;2023-02-10T00:49:22;-9.27;66.71
65396;HTU21D;52004;45.136;39.010;2023-02-10T00:51:48;-9.27;66.69
65396;HTU21D;52004;45.136;39.010;2023-02-10T00:54:14;-9.27;66.65
65396;HTU21D;52004;45.136;39.010;2023-02-10T00:56:40;-9.29;66.63
65396;HTU21D;52004;45.136;39.010;2023-02-10T00:59:06;-9.31;66.62
65396;HTU21D;52004;45.136;39.010;2023-02-10T01:01:34;-9.31;66.63
65396;HTU21D;52004;45.136;39.010;2023-02-10T01:04:00;-9.32;66.68
65396;HTU21D;52004;45.136;39.010;2023-02-10T01:06:26;-9.31;66.66
65396;HTU21D;52004;45.136;39.010;2023-02-10T01:08:52;-9.32;66.59
65396;HTU21D;52004;45.136;39.010;2023-02-10T01:11:18;-9.30;66.64
65396;HTU21D;52004;45.136;39.010;2023-02-10T01:13:45;-9.32;66.61
65396;HTU21D;52004;45.136;39.010;2023-02-10T01:16:12;-9.32;66.58
65396;HTU21D;52004;45.136;39.010;2023-02-10T01:18:39;-9.37;66.62
65396;HTU21D;52004;45.136;39.010;2023-02-10T01:21:06;-9.38;66.75
65396;HTU21D;52004;45.136;39.010;2023-02-10T01:23:32;-9.38;66.71
65396;HTU21D;52004;45.136;39.010;2023-02-10T01:25:59;-9.43;66.70
65396;HTU21D;52004;45.136;39.010;2023-02-10T01:28:25;-9.45;66.75
65396;HTU21D;52004;45.136;39.010;2023-02-10T01:30:51;-9.48;66.80
65396;HTU21D;52004;45.136;39.010;2023-02-10T01:33:17;-9.49;66.91
65396;HTU21D;52004;45.136;39.010;2023-02-10T01:35:42;-9.48;66.83
65396;HTU21D;52004;45.136;39.010;2023-02-10T01:38:08;-9.48;66.88
65396;HTU21D;52004;45.136;39.010;2023-02-10T01:40:34;-9.49;66.79
65396;HTU21D;52004;45.136;39.010;2023-02-10T01:43:00;-9.56;66.68
65396;HTU21D;52004;45.136;39.010;2023-02-10T01:45:27;-9.59;66.79
65396;HTU21D;52004;45.136;39.010;2023-02-10T01:47:56;-9.61;66.94
65396;HTU21D;52004;45.136;39.010;2023-02-10T01:50:23;-9.60;66.91
65396;HTU21D;52004;45.136;39.010;2023-02-10T01:52:51;-9.63;66.80
65396;HTU21D;52004;45.136;39.010;2023-02-10T01:55:20;-9.69;66.83
65396;HTU21D;52004;45.136;39.010;2023-02-10T01:57:46;-9.71;66.91
65396;HTU21D;52004;45.136;39.010;2023-02-10T02:00:14;-9.69;66.96
65396;HTU21D;52004;45.136;39.010;2023-02-10T02:02:42;-9.66;66.91
65396;HTU21D;52004;45.136;39.010;2023-02-10T02:05:22;-9.64;66.88
65396;HTU21D;52004;45.136;39.010;2023-02-10T02:07:52;-9.61;66.78
65396;HTU21D;52004;45.136;39.010;2023-02-10T02:10:18;-9.60;66.76
65396;HTU21D;52004;45.136;39.010;2023-02-10T02:12:51;-9.60;66.75
65396;HTU21D;52004;45.136;39.010;2023-02-10T02:15:25;-9.59;66.68
65396;HTU21D;52004;45.136;39.010;2023-02-10T02:18:09;-9.63;66.64
65396;HTU21D;52004;45.136;39.010;2023-02-10T02:23:43;-9.64;66.75
65396;HTU21D;52004;45.136;39.010;2023-02-10T02:26:19;-9.63;66.66
65396;HTU21D;52004;45.136;39.010;2023-02-10T02:34:05;-9.69;66.58
65396;HTU21D;52004;45.136;39.010;2023-02-10T02:36:44;-9.70;66.62
65396;HTU21D;52004;45.136;39.010;2023-02-10T02:39:14;-9.70;66.62
65396;HTU21D;52004;45.136;39.010;2023-02-10T02:41:40;-9.70;66.58
65396;HTU21D;52004;45.136;39.010;2023-02-10T02:44:06;-9.72;66.54
65396;HTU21D;52004;45.136;39.010;2023-02-10T02:47:19;-9.73;66.52
65396;HTU21D;52004;45.136;39.010;2023-02-10T02:49:31;-9.76;66.43
65396;HTU21D;52004;45.136;39.010;2023-02-10T02:57:09;-9.84;66.50
65396;HTU21D;52004;45.136;39.010;2023-02-10T02:59:39;-9.86;66.49
65396;HTU21D;52004;45.136;39.010;2023-02-10T03:02:07;-9.89;66.45
65396;HTU21D;52004;45.136;39.010;2023-02-10T03:04:37;-9.92;66.47
65396;HTU21D;52004;45.136;39.010;2023-02-10T03:07:04;-9.94;66.53
65396;HTU21D;52004;45.136;39.010;2023-02-10T03:09:30;-9.96;66.56
65396;HTU21D;52004;45.136;39.010;2023-02-10T03:11:56;-9.97;66.53
65396;HTU21D;52004;45.136;39.010;2023-02-10T03:14:22;-9.97;66.51
65396;HTU21D;52004;45.136;39.010;2023-02-10T03:16:48;-9.98;66.55
65396;HTU21D;52004;45.136;39.010;2023-02-10T03:19:14;-9.98;66.59
65396;HTU21D;52004;45.136;39.010;2023-02-10T03:21:40;-10.01;66.59
65396;HTU21D;52004;45.136;39.010;2023-02-10T03:24:06;-10.02;66.61
65396;HTU21D;52004;45.136;39.010;2023-02-10T03:26:35;-10.07;66.55
65396;HTU21D;52004;45.136;39.010;2023-02-10T03:29:01;-10.11;66.68
65396;HTU21D;52004;45.136;39.010;2023-02-10T03:31:27;-10.11;66.74
65396;HTU21D;52004;45.136;39.010;2023-02-10T03:33:53;-10.07;66.72
65396;HTU21D;52004;45.136;39.010;2023-02-10T03:36:18;-10.08;66.70
65396;HTU21D;52004;45.136;39.010;2023-02-10T03:38:44;-10.10;66.66
65396;HTU21D;52004;45.136;39.010;2023-02-10T03:41:11;-10.13;66.72
65396;HTU21D;52004;45.136;39.010;2023-02-10T03:43:37;-10.11;66.72
65396;HTU21D;52004;45.136;39.010;2023-02-10T03:46:03;-10.12;66.66
65396;HTU21D;52004;45.136;39.010;2023-02-10T03:48:29;-10.15;66.69
65396;HTU21D;52004;45.136;39.010;2023-02-10T03:50:59;-10.15;66.73
65396;HTU21D;52004;45.136;39.010;2023-02-10T03:53:25;-10.15;66.71
65396;HTU21D;52004;45.136;39.010;2023-02-10T03:55:51;-10.14;66.74
65396;HTU21D;52004;45.136;39.010;2023-02-10T03:58:17;-10.15;66.72
65396;HTU21D;52004;45.136;39.010;2023-02-10T04:00:43;-10.12;66.66
65396;HTU21D;52004;45.136;39.010;2023-02-10T04:03:08;-10.13;66.65
65396;HTU21D;52004;45.136;39.010;2023-02-10T04:05:34;-10.12;66.65
65396;HTU21D;52004;45.136;39.010;2023-02-10T04:08:00;-10.11;66.71
65396;HTU21D;52004;45.136;39.010;2023-02-10T04:10:26;-10.11;66.77
65396;HTU21D;52004;45.136;39.010;2023-02-10T04:12:52;-10.08;66.74
65396;HTU21D;52004;45.136;39.010;2023-02-10T04:15:18;-10.07;66.67
65396;HTU21D;52004;45.136;39.010;2023-02-10T04:17:44;-10.06;66.59
65396;HTU21D;52004;45.136;39.010;2023-02-10T04:20:10;-10.06;66.54
65396;HTU21D;52004;45.136;39.010;2023-02-10T04:22:37;-10.06;66.49
65396;HTU21D;52004;45.136;39.010;2023-02-10T04:25:02;-10.07;66.53
65396;HTU21D;52004;45.136;39.010;2023-02-10T04:27:28;-10.08;66.56
65396;HTU21D;52004;45.136;39.010;2023-02-10T04:29:54;-10.08;66.57
65396;HTU21D;52004;45.136;39.010;2023-02-10T04:32:20;-10.11;66.54
65396;HTU21D;52004;45.136;39.010;2023-02-10T04:34:46;-10.12;66.68
65396;HTU21D;52004;45.136;39.010;2023-02-10T04:37:12;-10.13;66.71
65396;HTU21D;52004;45.136;39.010;2023-02-10T04:39:38;-10.13;66.75
65396;HTU21D;52004;45.136;39.010;2023-02-10T04:42:04;-10.11;66.77
65396;HTU21D;52004;45.136;39.010;2023-02-10T04:44:30;-10.10;66.81
65396;HTU21D;52004;45.136;39.010;2023-02-10T04:46:56;-10.06;66.79
65396;HTU21D;52004;45.136;39.010;2023-02-10T04:49:22;-10.04;66.83
65396;HTU21D;52004;45.136;39.010;2023-02-10T04:51:48;-10.03;66.83
65396;HTU21D;52004;45.136;39.010;2023-02-10T04:54:14;-10.02;66.80
65396;HTU21D;52004;45.136;39.010;2023-02-10T04:56:40;-10.00;66.79
65396;HTU21D;52004;45.136;39.010;2023-02-10T04:59:06;-9.97;66.72
65396;HTU21D;52004;45.136;39.010;2023-02-10T05:01:32;-9.96;66.75
65396;HTU21D;52004;45.136;39.010;2023-02-10T05:03:58;-9.93;66.81
65396;HTU21D;52004;45.136;39.010;2023-02-10T05:06:24;-9.89;66.86
65396;HTU21D;52004;45.136;39.010;2023-02-10T05:08:50;-9.85;66.89
65396;HTU21D;52004;45.136;39.010;2023-02-10T05:11:16;-9.82;66.88
65396;HTU21D;52004;45.136;39.010;2023-02-10T05:13:42;-9.77;66.86
65396;HTU21D;52004;45.136;39.010;2023-02-10T05:16:09;-9.75;66.91
65396;HTU21D;52004;45.136;39.010;2023-02-10T05:18:35;-9.71;66.95
65396;HTU21D;52004;45.136;39.010;2023-02-10T05:21:01;-9.66;66.94
65396;HTU21D;52004;45.136;39.010;2023-02-10T05:23:30;-9.64;66.98
65396;HTU21D;52004;45.136;39.010;2023-02-10T05:25:56;-9.62;67.06
65396;HTU21D;52004;45.136;39.010;2023-02-10T05:28:22;-9.63;66.97
65396;HTU21D;52004;45.136;39.010;2023-02-10T05:30:48;-9.66;67.07
65396;HTU21D;52004;45.136;39.010;2023-02-10T05:33:14;-9.63;67.20
65396;HTU21D;52004;45.136;39.010;2023-02-10T05:35:40;-9.62;67.27
65396;HTU21D;52004;45.136;39.010;2023-02-10T05:38:06;-9.55;67.42
65396;HTU21D;52004;45.136;39.010;2023-02-10T05:40:32;-9.46;67.44
65396;HTU21D;52004;45.136;39.010;2023-02-10T05:42:58;-9.44;67.36
65396;HTU21D;52004;45.136;39.010;2023-02-10T05:45:24;-9.38;67.39
65396;HTU21D;52004;45.136;39.010;2023-02-10T05:47:50;-9.34;67.39
65396;HTU21D;52004;45.136;39.010;2023-02-10T05:50:17;-9.32;67.40
65396;HTU21D;52004;45.136;39.010;2023-02-10T05:52:43;-9.26;67.54
65396;HTU21D;52004;45.136;39.010;2023-02-10T05:55:09;-9.19;67.46
65396;HTU21D;52004;45.136;39.010;2023-02-10T05:57:36;-9.18;67.39
65396;HTU21D;52004;45.136;39.010;2023-02-10T06:00:03;-9.16;67.48
65396;HTU21D;52004;45.136;39.010;2023-02-10T06:02:37;-9.10;67.46
65396;HTU21D;52004;45.136;39.010;2023-02-10T06:05:03;-9.05;67.42
65396;HTU21D;52004;45.136;39.010;2023-02-10T06:07:29;-8.99;67.47
65396;HTU21D;52004;45.136;39.010;2023-02-10T06:09:55;-8.93;67.46
65396;HTU21D;52004;45.136;39.010;2023-02-10T06:12:21;-8.86;67.40
65396;HTU21D;52004;45.136;39.010;2023-02-10T06:14:47;-8.80;67.45
65396;HTU21D;52004;45.136;39.010;2023-02-10T06:17:13;-8.77;67.35
65396;HTU21D;52004;45.136;39.010;2023-02-10T06:19:39;-8.72;67.46
65396;HTU21D;52004;45.136;39.010;2023-02-10T06:22:06;-8.64;67.53
65396;HTU21D;52004;45.136;39.010;2023-02-10T06:24:32;-8.56;67.59
65396;HTU21D;52004;45.136;39.010;2023-02-10T06:26:58;-8.51;67.52
65396;HTU21D;52004;45.136;39.010;2023-02-10T06:29:24;-8.43;67.59
65396;HTU21D;52004;45.136;39.010;2023-02-10T06:31:50;-8.37;67.59
65396;HTU21D;52004;45.136;39.010;2023-02-10T06:34:16;-8.30;67.63
65396;HTU21D;52004;45.136;39.010;2023-02-10T06:36:42;-8.21;67.66
65396;HTU21D;52004;45.136;39.010;2023-02-10T06:39:08;-8.14;67.53
65396;HTU21D;52004;45.136;39.010;2023-02-10T06:41:34;-8.06;67.66
65396;HTU21D;52004;45.136;39.010;2023-02-10T06:44:00;-7.97;67.59
65396;HTU21D;52004;45.136;39.010;2023-02-10T06:46:26;-7.90;67.55
65396;HTU21D;52004;45.136;39.010;2023-02-10T06:48:52;-7.85;67.46
65396;HTU21D;52004;45.136;39.010;2023-02-10T06:51:18;-7.90;67.27
65396;HTU21D;52004;45.136;39.010;2023-02-10T06:53:44;-7.96;67.36
65396;HTU21D;52004;45.136;39.010;2023-02-10T06:56:11;-7.93;67.72
65396;HTU21D;52004;45.136;39.010;2023-02-10T06:58:37;-7.84;67.82
65396;HTU21D;52004;45.136;39.010;2023-02-10T07:01:07;-7.76;67.86
65396;HTU21D;52004;45.136;39.010;2023-02-10T07:03:33;-7.67;67.68
65396;HTU21D;52004;45.136;39.010;2023-02-10T07:05:59;-7.63;67.65
65396;HTU21D;52004;45.136;39.010;2023-02-10T07:08:25;-7.63;67.48
65396;HTU21D;52004;45.136;39.010;2023-02-10T07:10:51;-7.62;67.73
65396;HTU21D;52004;45.136;39.010;2023-02-10T07:13:17;-7.55;67.69
65396;HTU21D;52004;45.136;39.010;2023-02-10T07:15:43;-7.48;67.89
65396;HTU21D;52004;45.136;39.010;2023-02-10T07:18:09;-7.34;67.99
65396;HTU21D;52004;45.136;39.010;2023-02-10T07:20:35;-7.21;67.92
65396;HTU21D;52004;45.136;39.010;2023-02-10T07:23:01;-7.10;67.87
65396;HTU21D;52004;45.136;39.010;2023-02-10T07:25:27;-7.00;67.89
65396;HTU21D;52004;45.136;39.010;2023-02-10T07:27:52;-6.88;67.88
65396;HTU21D;52004;45.136;39.010;2023-02-10T07:30:18;-6.83;67.70
65396;HTU21D;52004;45.136;39.010;2023-02-10T07:32:44;-6.77;67.76
65396;HTU21D;52004;45.136;39.010;2023-02-10T07:35:11;-6.68;67.84
65396;HTU21D;52004;45.136;39.010;2023-02-10T07:37:37;-6.59;67.91
65396;HTU21D;52004;45.136;39.010;2023-02-10T07:40:03;-6.46;67.94
65396;HTU21D;52004;45.136;39.010;2023-02-10T07:42:29;-6.33;67.78
65396;HTU21D;52004;45.136;39.010;2023-02-10T07:45:11;-6.24;67.62
65396;HTU21D;52004;45.136;39.010;2023-02-10T07:47:36;-6.18;67.68
65396;HTU21D;52004;45.136;39.010;2023-02-10T07:50:03;-6.12;67.65
65396;HTU21D;52004;45.136;39.010;2023-02-10T07:52:29;-6.08;67.54
65396;HTU21D;52004;45.136;39.010;2023-02-10T07:54:54;-6.04;67.62
65396;HTU21D;52004;45.136;39.010;2023-02-10T07:57:21;-5.99;67.66
65396;HTU21D;52004;45.136;39.010;2023-02-10T07:59:47;-5.93;67.69
65396;HTU21D;52004;45.136;39.010;2023-02-10T08:02:13;-5.91;67.65
65396;HTU21D;52004;45.136;39.010;2023-02-10T08:04:38;-5.88;67.74
65396;HTU21D;52004;45.136;39.010;2023-02-10T08:07:04;-5.79;67.78
65396;HTU21D;52004;45.136;39.010;2023-02-10T08:09:30;-5.69;67.68
65396;HTU21D;52004;45.136;39.010;2023-02-10T08:11:56;-5.62;67.61
65396;HTU21D;52004;45.136;39.010;2023-02-10T08:14:22;-5.56;67.68
65396;HTU21D;52004;45.136;39.010;2023-02-10T08:16:48;-5.48;67.81
65396;HTU21D;52004;45.136;39.010;2023-02-10T08:19:14;-5.38;67.84
65396;HTU21D;52004;45.136;39.010;2023-02-10T08:21:40;-5.29;67.90
65396;HTU21D;52004;45.136;39.010;2023-02-10T08:24:07;-5.19;67.92
65396;HTU21D;52004;45.136;39.010;2023-02-10T08:26:33;-5.09;67.93
65396;HTU21D;52004;45.136;39.010;2023-02-10T08:29:00;-5.00;67.84
65396;HTU21D;52004;45.136;39.010;2023-02-10T08:31:26;-4.98;67.63
65396;HTU21D;52004;45.136;39.010;2023-02-10T08:33:52;-4.91;67.72
65396;HTU21D;52004;45.136;39.010;2023-02-10T08:36:19;-4.82;67.72
65396;HTU21D;52004;45.136;39.010;2023-02-10T08:38:46;-4.73;67.65
65396;HTU21D;52004;45.136;39.010;2023-02-10T08:41:13;-4.69;67.49
65396;HTU21D;52004;45.136;39.010;2023-02-10T08:43:39;-4.67;67.41
65396;HTU21D;52004;45.136;39.010;2023-02-10T08:46:04;-4.70;67.39
65396;HTU21D;52004;45.136;39.010;2023-02-10T08:48:30;-4.72;67.45
65396;HTU21D;52004;45.136;39.010;2023-02-10T08:50:56;-4.73;67.38
65396;HTU21D;52004;45.136;39.010;2023-02-10T08:53:22;-4.72;67.49
65396;HTU21D;52004;45.136;39.010;2023-02-10T08:55:55;-4.68;67.56
65396;HTU21D;52004;45.136;39.010;2023-02-10T08:58:21;-4.63;67.59
65396;HTU21D;52004;45.136;39.010;2023-02-10T09:00:46;-4.58;67.51
65396;HTU21D;52004;45.136;39.010;2023-02-10T09:03:12;-4.53;67.59
65396;HTU21D;52004;45.136;39.010;2023-02-10T09:05:38;-4.45;67.52
65396;HTU21D;52004;45.136;39.010;2023-02-10T09:08:04;-4.39;67.50
65396;HTU21D;52004;45.136;39.010;2023-02-10T09:10:30;-4.37;67.40
65396;HTU21D;52004;45.136;39.010;2023-02-10T09:12:56;-4.35;67.30
65396;HTU21D;52004;45.136;39.010;2023-02-10T09:15:22;-4.32;67.29
65396;HTU21D;52004;45.136;39.010;2023-02-10T09:17:48;-4.27;67.32
65396;HTU21D;52004;45.136;39.010;2023-02-10T09:20:14;-4.20;67.39
65396;HTU21D;52004;45.136;39.010;2023-02-10T09:22:39;-4.12;67.46
65396;HTU21D;52004;45.136;39.010;2023-02-10T09:25:05;-4.05;67.46
65396;HTU21D;52004;45.136;39.010;2023-02-10T09:27:31;-3.98;67.53
65396;HTU21D;52004;45.136;39.010;2023-02-10T09:29:57;-3.94;67.49
65396;HTU21D;52004;45.136;39.010;2023-02-10T09:32:23;-3.93;67.52
65396;HTU21D;52004;45.136;39.010;2023-02-10T09:34:49;-3.89;67.61
65396;HTU21D;52004;45.136;39.010;2023-02-10T09:37:15;-3.83;67.70
65396;HTU21D;52004;45.136;39.010;2023-02-10T09:39:41;-3.83;67.63
65396;HTU21D;52004;45.136;39.010;2023-02-10T09:44:33;-3.76;67.64
65396;HTU21D;52004;45.136;39.010;2023-02-10T09:49:34;-3.53;68.04
65396;HTU21D;52004;45.136;39.010;2023-02-10T09:54:30;-3.18;68.19
65396;HTU21D;52004;45.136;39.010;2023-02-10T09:57:02;-3.02;68.33
65396;HTU21D;52004;45.136;39.010;2023-02-10T09:59:29;-2.86;68.26
65396;HTU21D;52004;45.136;39.010;2023-02-10T10:02:00;-2.71;68.21
65396;HTU21D;52004;45.136;39.010;2023-02-10T10:04:27;-2.60;68.11
65396;HTU21D;52004;45.136;39.010;2023-02-10T10:06:57;-2.50;68.04
65396;HTU21D;52004;45.136;39.010;2023-02-10T10:09:44;-2.43;68.07
65396;HTU21D;52004;45.136;39.010;2023-02-10T10:12:11;-2.39;67.79
65396;HTU21D;52004;45.136;39.010;2023-02-10T10:14:39;-2.45;67.62
65396;HTU21D;52004;45.136;39.010;2023-02-10T10:17:26;-2.44;67.80
65396;HTU21D;52004;45.136;39.010;2023-02-10T10:20:12;-2.44;67.63
65396;HTU21D;52004;45.136;39.010;2023-02-10T10:30:11;-2.48;67.19
65396;HTU21D;52004;45.136;39.010;2023-02-10T10:32:41;-2.56;67.14
65396;HTU21D;52004;45.136;39.010;2023-02-10T10:35:28;-2.60;67.23
65396;HTU21D;52004;45.136;39.010;2023-02-10T10:37:55;-2.61;67.40
65396;HTU21D;52004;45.136;39.010;2023-02-10T10:40:27;-2.59;67.36
65396;HTU21D;52004;45.136;39.010;2023-02-10T10:42:58;-2.56;67.39
65396;HTU21D;52004;45.136;39.010;2023-02-10T10:45:36;-2.50;67.43
65396;HTU21D;52004;45.136;39.010;2023-02-10T10:48:05;-2.45;67.32
65396;HTU21D;52004;45.136;39.010;2023-02-10T10:50:33;-2.44;67.20
65396;HTU21D;52004;45.136;39.010;2023-02-10T10:52:59;-2.41;67.10
65396;HTU21D;52004;45.136;39.010;2023-02-10T10:55:46;-2.42;66.86
65396;HTU21D;52004;45.136;39.010;2023-02-10T10:58:35;-2.42;66.94
65396;HTU21D;52004;45.136;39.010;2023-02-10T11:00:59;-2.41;66.80
65396;HTU21D;52004;45.136;39.010;2023-02-10T11:03:26;-2.43;66.77
65396;HTU21D;52004;45.136;39.010;2023-02-10T11:06:03;-2.43;66.80
65396;HTU21D;52004;45.136;39.010;2023-02-10T11:08:33;-2.42;66.76
65396;HTU21D;52004;45.136;39.010;2023-02-10T11:11:00;-2.43;66.69
65396;HTU21D;52004;45.136;39.010;2023-02-10T11:13:27;-2.48;66.40
65396;HTU21D;52004;45.136;39.010;2023-02-10T11:16:07;-2.62;66.46
65396;HTU21D;52004;45.136;39.010;2023-02-10T11:18:34;-2.71;66.69
65396;HTU21D;52004;45.136;39.010;2023-02-10T11:21:01;-2.72;66.89
65396;HTU21D;52004;45.136;39.010;2023-02-10T11:23:28;-2.65;67.02
65396;HTU21D;52004;45.136;39.010;2023-02-10T11:25:55;-2.62;66.93
65396;HTU21D;52004;45.136;39.010;2023-02-10T11:28:24;-2.57;66.90
65396;HTU21D;52004;45.136;39.010;2023-02-10T11:30:58;-2.54;66.75
65396;HTU21D;52004;45.136;39.010;2023-02-10T11:33:27;-2.53;66.78
65396;HTU21D;52004;45.136;39.010;2023-02-10T11:35:56;-2.57;66.72
65396;HTU21D;52004;45.136;39.010;2023-02-10T11:38:23;-2.56;66.87
65396;HTU21D;52004;45.136;39.010;2023-02-10T11:43:15;-2.45;66.78
65396;HTU21D;52004;45.136;39.010;2023-02-10T11:45:51;-2.48;66.80
65396;HTU21D;52004;45.136;39.010;2023-02-10T11:48:19;-2.43;67.03
65396;HTU21D;52004;45.136;39.010;2023-02-10T11:50:45;-2.37;67.00
65396;HTU21D;52004;45.136;39.010;2023-02-10T11:53:23;-2.39;66.83
65396;HTU21D;52004;45.136;39.010;2023-02-10T11:55:57;-2.44;66.65
65396;HTU21D;52004;45.136;39.010;2023-02-10T12:01:38;-2.46;66.78
65396;HTU21D;52004;45.136;39.010;2023-02-10T12:07:00;-2.44;66.81
65396;HTU21D;52004;45.136;39.010;2023-02-10T12:12:08;-2.34;67.05
65396;HTU21D;52004;45.136;39.010;2023-02-10T12:28:14;-2.27;66.59
65396;HTU21D;52004;45.136;39.010;2023-02-10T12:33:31;-2.36;66.58
65396;HTU21D;52004;45.136;39.010;2023-02-10T12:43:30;-2.35;66.59
65396;HTU21D;52004;45.136;39.010;2023-02-10T12:48:28;-2.39;66.40
65396;HTU21D;52004;45.136;39.010;2023-02-10T12:53:26;-2.37;66.60
65396;HTU21D;52004;45.136;39.010;2023-02-10T12:56:01;-2.34;66.60
65396;HTU21D;52004;45.136;39.010;2023-02-10T12:58:39;-2.33;66.49
65396;HTU21D;52004;45.136;39.010;2023-02-10T13:01:13;-2.32;66.47
65396;HTU21D;52004;45.136;39.010;2023-02-10T13:03:41;-2.35;66.30
65396;HTU21D;52004;45.136;39.010;2023-02-10T13:06:17;-2.41;66.33
65396;HTU21D;52004;45.136;39.010;2023-02-10T13:08:49;-2.49;66.23
65396;HTU21D;52004;45.136;39.010;2023-02-10T13:11:25;-2.57;66.36
65396;HTU21D;52004;45.136;39.010;2023-02-10T13:13:56;-2.62;66.45
65396;HTU21D;52004;45.136;39.010;2023-02-10T13:16:25;-2.62;66.46
65396;HTU21D;52004;45.136;39.010;2023-02-10T13:19:03;-2.67;66.32
65396;HTU21D;52004;45.136;39.010;2023-02-10T13:24:28;-2.79;66.51
65396;HTU21D;52004;45.136;39.010;2023-02-10T13:29:47;-2.87;66.65
65396;HTU21D;52004;45.136;39.010;2023-02-10T13:35:13;-2.84;66.62
65396;HTU21D;52004;45.136;39.010;2023-02-10T13:37:49;-2.87;66.62
65396;HTU21D;52004;45.136;39.010;2023-02-10T13:40:28;-2.86;66.59
65396;HTU21D;52004;45.136;39.010;2023-02-10T13:42:59;-2.87;66.49
65396;HTU21D;52004;45.136;39.010;2023-02-10T13:45:31;-2.87;66.53
65396;HTU21D;52004;45.136;39.010;2023-02-10T13:47:58;-2.87;66.53
65396;HTU21D;52004;45.136;39.010;2023-02-10T13:50:26;-2.87;66.53
65396;HTU21D;52004;45.136;39.010;2023-02-10T13:55:26;-2.82;66.47
65396;HTU21D;52004;45.136;39.010;2023-02-10T14:00:23;-2.81;66.43
65396;HTU21D;52004;45.136;39.010;2023-02-10T14:05:29;-2.80;66.27
65396;HTU21D;52004;45.136;39.010;2023-02-10T14:07:56;-2.88;66.21
65396;HTU21D;52004;45.136;39.010;2023-02-10T14:12:56;-2.92;66.33
65396;HTU21D;52004;45.136;39.010;2023-02-10T14:15:23;-2.93;66.39
65396;HTU21D;52004;45.136;39.010;2023-02-10T14:17:54;-2.96;66.33
65396;HTU21D;52004;45.136;39.010;2023-02-10T14:20:30;-2.98;66.37
65396;HTU21D;52004;45.136;39.010;2023-02-10T14:22:57;-3.01;66.30
65396;HTU21D;52004;45.136;39.010;2023-02-10T14:27:55;-3.06;66.42
65396;HTU21D;52004;45.136;39.010;2023-02-10T14:32:47;-3.11;66.40
65396;HTU21D;52004;45.136;39.010;2023-02-10T14:35:18;-3.13;66.46
65396;HTU21D;52004;45.136;39.010;2023-02-10T14:37:53;-3.15;66.47
65396;HTU21D;52004;45.136;39.010;2023-02-10T14:40:21;-3.16;66.45
65396;HTU21D;52004;45.136;39.010;2023-02-10T14:43:12;-3.18;66.45
65396;HTU21D;52004;45.136;39.010;2023-02-10T14:45:38;-3.19;66.45
65396;HTU21D;52004;45.136;39.010;2023-02-10T14:48:06;-3.21;66.38
65396;HTU21D;52004;45.136;39.010;2023-02-10T14:50:34;-3.24;66.45
65396;HTU21D;52004;45.136;39.010;2023-02-10T14:53:01;-3.24;66.52
65396;HTU21D;52004;45.136;39.010;2023-02-10T15:03:31;-3.34;66.37
65396;HTU21D;52004;45.136;39.010;2023-02-10T15:05:57;-3.40;66.49
65396;HTU21D;52004;45.136;39.010;2023-02-10T15:08:59;-3.42;66.61
65396;HTU21D;52004;45.136;39.010;2023-02-10T15:11:21;-3.41;66.66
65396;HTU21D;52004;45.136;39.010;2023-02-10T15:14:18;0.00;66.62
65396;HTU21D;52004;45.136;39.010;2023-02-10T15:16:44;-3.41;66.63
65396;HTU21D;52004;45.136;39.010;2023-02-10T15:19:14;-3.40;66.71
65396;HTU21D;52004;45.136;39.010;2023-02-10T15:21:41;-3.37;66.71
65396;HTU21D;52004;45.136;39.010;2023-02-10T15:24:17;-3.37;66.59
65396;HTU21D;52004;45.136;39.010;2023-02-10T15:26:44;-3.40;66.52
65396;HTU21D;52004;45.136;39.010;2023-02-10T15:29:11;-3.46;66.53
65396;HTU21D;52004;45.136;39.010;2023-02-10T15:31:37;-3.50;66.61
65396;HTU21D;52004;45.136;39.010;2023-02-10T15:34:20;-3.50;66.69
65396;HTU21D;52004;45.136;39.010;2023-02-10T15:36:50;-3.50;66.72
65396;HTU21D;52004;45.136;39.010;2023-02-10T15:39:19;-3.52;66.66
65396;HTU21D;52004;45.136;39.010;2023-02-10T15:46:44;-3.62;66.85
65396;HTU21D;52004;45.136;39.010;2023-02-10T15:49:11;-3.61;66.89
65396;HTU21D;52004;45.136;39.010;2023-02-10T15:51:48;-3.56;66.94
65396;HTU21D;52004;45.136;39.010;2023-02-10T15:54:19;-3.53;66.90
65396;HTU21D;52004;45.136;39.010;2023-02-10T15:56:58;-3.51;66.84
65396;HTU21D;52004;45.136;39.010;2023-02-10T15:59:24;-3.49;66.78
65396;HTU21D;52004;45.136;39.010;2023-02-10T16:01:54;-3.48;66.75
65396;HTU21D;52004;45.136;39.010;2023-02-10T16:04:45;-3.47;66.73
65396;HTU21D;52004;45.136;39.010;2023-02-10T16:07:22;-3.47;66.66
65396;HTU21D;52004;45.136;39.010;2023-02-10T16:09:49;-3.48;66.75
65396;HTU21D;52004;45.136;39.010;2023-02-10T16:12:16;-3.47;66.76
65396;HTU21D;52004;45.136;39.010;2023-02-10T16:14:42;-3.47;66.73
65396;HTU21D;52004;45.136;39.010;2023-02-10T16:17:10;-3.46;66.68
65396;HTU21D;52004;45.136;39.010;2023-02-10T16:19:42;-3.49;66.64
65396;HTU21D;52004;45.136;39.010;2023-02-10T16:22:08;-3.51;66.71
65396;HTU21D;52004;45.136;39.010;2023-02-10T16:24:34;-3.51;66.75
65396;HTU21D;52004;45.136;39.010;2023-02-10T16:27:01;-3.51;66.80
65396;HTU21D;52004;45.136;39.010;2023-02-10T16:29:28;-3.50;66.74
65396;HTU21D;52004;45.136;39.010;2023-02-10T16:31:57;-3.51;66.73
65396;HTU21D;52004;45.136;39.010;2023-02-10T16:34:25;-3.54;66.78
65396;HTU21D;52004;45.136;39.010;2023-02-10T16:36:55;-3.53;66.92
65396;HTU21D;52004;45.136;39.010;2023-02-10T16:39:21;-3.50;66.89
65396;HTU21D;52004;45.136;39.010;2023-02-10T16:41:50;-3.51;66.82
65396;HTU21D;52004;45.136;39.010;2023-02-10T16:44:16;-3.52;66.81
65396;HTU21D;52004;45.136;39.010;2023-02-10T16:46:43;-3.53;66.86
65396;HTU21D;52004;45.136;39.010;2023-02-10T16:49:10;-3.53;66.87
65396;HTU21D;52004;45.136;39.010;2023-02-10T16:51:37;-3.54;66.84